Time,TemperatureF,DewpointF,PressureIn,WindDirection,WindDirectionDegrees,WindSpeedMPH,WindSpeedGustMPH,Humidity,HourlyPrecipIn,Conditions,Clouds,dailyrainin,SoftwareType,DateUTC
2013-05-02 00:04:00,44.6,38.2,30.30,SW,225,0.0,-999.0,78,-99.99,,,0.00,Acu-Link.com,2013-05-02 04:04:00,
2013-05-02 00:19:00,44.2,36.1,30.30,NNW,337,0.0,-999.0,73,-99.99,,,0.00,Acu-Link.com,2013-05-02 04:19:00,
2013-05-02 00:34:00,43.5,35.4,30.30,WSW,247,0.0,-999.0,73,-99.99,,,0.00,Acu-Link.com,2013-05-02 04:34:00,
2013-05-02 00:50:00,42.6,35.6,30.30,WSW,247,0.0,-999.0,76,-99.99,,,0.00,Acu-Link.com,2013-05-02 04:50:00,
2013-05-02 01:05:00,42.6,35.6,30.30,WSW,247,0.0,-999.0,76,-99.99,,,0.00,Acu-Link.com,2013-05-02 05:05:00,
2013-05-02 01:20:00,42.3,36.9,30.29,SW,225,0.0,-999.0,81,-99.99,,,0.00,Acu-Link.com,2013-05-02 05:20:00,
2013-05-02 01:35:00,42.3,39.0,30.29,WSW,247,0.0,-999.0,88,-99.99,,,0.00,Acu-Link.com,2013-05-02 05:35:00,
2013-05-02 01:50:00,42.3,37.8,30.29,ESE,112,0.0,-999.0,84,-99.99,,,0.00,Acu-Link.com,2013-05-02 05:50:00,
2013-05-02 02:06:00,41.5,38.2,30.28,WSW,247,0.0,-999.0,88,-99.99,,,0.00,Acu-Link.com,2013-05-02 06:06:00,
2013-05-02 02:21:00,42.1,38.8,30.28,South,180,0.0,-999.0,88,-99.99,,,0.00,Acu-Link.com,2013-05-02 06:21:00,
2013-05-02 02:36:00,41.4,38.1,30.27,SSW,202,0.0,-999.0,88,-99.99,,,0.00,Acu-Link.com,2013-05-02 06:36:00,
2013-05-02 02:51:00,41.4,38.1,30.27,ESE,112,3.2,-999.0,88,-99.99,,,0.00,Acu-Link.com,2013-05-02 06:51:00,
2013-05-02 03:07:00,41.0,38.3,30.27,South,180,0.0,-999.0,90,-99.99,,,0.00,Acu-Link.com,2013-05-02 07:07:00,
2013-05-02 03:22:00,40.8,38.7,30.27,ESE,112,0.0,-999.0,92,-99.99,,,0.00,Acu-Link.com,2013-05-02 07:22:00,
2013-05-02 03:37:00,40.1,37.7,30.27,West,270,0.0,-999.0,91,-99.99,,,0.00,Acu-Link.com,2013-05-02 07:37:00,
2013-05-02 03:52:00,40.1,37.7,30.27,NE,45,0.0,-999.0,91,-99.99,,,0.00,Acu-Link.com,2013-05-02 07:52:00,
2013-05-02 04:08:00,39.6,37.7,30.28,NE,45,0.0,-999.0,93,-99.99,,,0.00,Acu-Link.com,2013-05-02 08:08:00,
2013-05-02 04:23:00,39.2,37.1,30.28,NE,45,0.0,-999.0,92,-99.99,,,0.00,Acu-Link.com,2013-05-02 08:23:00,
2013-05-02 04:38:00,38.5,36.7,30.28,NE,45,0.0,-999.0,93,-99.99,,,0.00,Acu-Link.com,2013-05-02 08:38:00,
2013-05-02 04:53:00,38.3,37.8,30.28,WNW,292,0.0,-999.0,98,-99.99,,,0.00,Acu-Link.com,2013-05-02 08:53:00,
2013-05-02 05:08:00,38.3,37.8,30.28,East,90,0.0,-999.0,98,-99.99,,,0.00,Acu-Link.com,2013-05-02 09:08:00,
2013-05-02 05:23:00,37.9,37.1,30.28,East,90,0.0,-999.0,97,-99.99,,,0.00,Acu-Link.com,2013-05-02 09:23:00,
2013-05-02 05:39:00,37.9,37.6,30.29,East,90,0.0,-999.0,99,-99.99,,,0.00,Acu-Link.com,2013-05-02 09:39:00,
2013-05-02 05:54:00,39.0,38.7,30.28,ENE,67,1.7,-999.0,99,-99.99,,,0.00,Acu-Link.com,2013-05-02 09:54:00,
2013-05-02 06:09:00,39.6,38.8,30.29,South,180,0.0,-999.0,97,-99.99,,,0.00,Acu-Link.com,2013-05-02 10:09:00,
2013-05-02 06:24:00,42.8,39.2,30.29,SSW,202,0.0,-999.0,87,-99.99,,,0.00,Acu-Link.com,2013-05-02 10:24:00,
2013-05-02 06:39:00,47.1,41.3,30.29,SE,135,0.0,-999.0,80,-99.99,,,0.00,Acu-Link.com,2013-05-02 10:39:00,
2013-05-02 06:55:00,49.3,41.0,30.30,SSW,202,0.0,-999.0,73,-99.99,,,0.00,Acu-Link.com,2013-05-02 10:55:00,
2013-05-02 07:10:00,52.2,42.7,30.30,WSW,247,1.7,-999.0,70,-99.99,,,0.00,Acu-Link.com,2013-05-02 11:10:00,
2013-05-02 07:25:00,54.9,43.8,30.30,West,270,0.0,-999.0,66,-99.99,,,0.00,Acu-Link.com,2013-05-02 11:25:00,
2013-05-02 07:40:00,57.6,43.8,30.31,SW,225,1.7,-999.0,60,-99.99,,,0.00,Acu-Link.com,2013-05-02 11:40:00,
2013-05-02 07:55:00,59.0,43.8,30.30,SW,225,2.7,-999.0,57,-99.99,,,0.00,Acu-Link.com,2013-05-02 11:55:00,
2013-05-02 08:11:00,61.0,44.7,30.30,South,180,0.0,-999.0,55,-99.99,,,0.00,Acu-Link.com,2013-05-02 12:11:00,
2013-05-02 08:26:00,60.6,43.4,30.31,SW,225,0.0,-999.0,53,-99.99,,,0.00,Acu-Link.com,2013-05-02 12:26:00,
2013-05-02 08:56:00,61.7,43.9,30.30,West,270,0.0,-999.0,52,-99.99,,,0.00,Acu-Link.com,2013-05-02 12:56:00,
2013-05-02 09:12:00,62.2,44.4,30.30,West,270,2.2,-999.0,52,-99.99,,,0.00,Acu-Link.com,2013-05-02 13:12:00,
2013-05-02 09:27:00,65.3,44.5,30.30,South,180,2.2,-999.0,47,-99.99,,,0.00,Acu-Link.com,2013-05-02 13:27:00,
2013-05-02 09:42:00,64.8,44.6,30.29,WSW,247,2.7,-999.0,48,-99.99,,,0.00,Acu-Link.com,2013-05-02 13:42:00,
2013-05-02 09:57:00,67.3,44.6,30.29,West,270,2.7,-999.0,44,-99.99,,,0.00,Acu-Link.com,2013-05-02 13:57:00,
2013-05-02 10:12:00,67.6,44.3,30.29,WNW,292,2.7,-999.0,43,-99.99,,,0.00,Acu-Link.com,2013-05-02 14:12:00,
2013-05-02 10:28:00,69.6,43.5,30.27,WSW,247,1.7,-999.0,39,-99.99,,,0.00,Acu-Link.com,2013-05-02 14:28:00,
2013-05-02 10:43:00,72.1,42.2,30.28,West,270,2.2,-999.0,34,-99.99,,,0.00,Acu-Link.com,2013-05-02 14:43:00,
2013-05-02 10:58:00,74.3,44.1,30.27,SSW,202,2.2,-999.0,34,-99.99,,,0.00,Acu-Link.com,2013-05-02 14:58:00,
2013-05-02 11:13:00,73.0,41.4,30.26,WSW,247,3.7,-999.0,32,-99.99,,,0.00,Acu-Link.com,2013-05-02 15:13:00,
2013-05-02 11:29:00,74.5,40.1,30.25,NNW,337,4.2,-999.0,29,-99.99,,,0.00,Acu-Link.com,2013-05-02 15:29:00,
2013-05-02 11:44:00,76.3,38.9,30.25,WSW,247,2.7,-999.0,26,-99.99,,,0.00,Acu-Link.com,2013-05-02 15:44:00,
2013-05-02 11:59:00,75.9,36.5,30.25,East,90,3.7,-999.0,24,-99.99,,,0.00,Acu-Link.com,2013-05-02 15:59:00,
2013-05-02 12:14:00,76.6,38.1,30.24,East,90,2.7,-999.0,25,-99.99,,,0.00,Acu-Link.com,2013-05-02 16:14:00,
2013-05-02 12:30:00,73.9,37.8,30.23,ESE,112,2.7,-999.0,27,-99.99,,,0.00,Acu-Link.com,2013-05-02 16:30:00,
2013-05-02 12:45:00,78.1,38.4,30.23,South,180,4.2,-999.0,24,-99.99,,,0.00,Acu-Link.com,2013-05-02 16:45:00,
2013-05-02 13:00:00,77.7,38.0,30.23,WSW,247,2.2,-999.0,24,-99.99,,,0.00,Acu-Link.com,2013-05-02 17:00:00,
2013-05-02 13:15:00,78.4,39.7,30.21,SSE,157,4.2,-999.0,25,-99.99,,,0.00,Acu-Link.com,2013-05-02 17:15:00,
2013-05-02 13:30:00,78.1,40.4,30.21,East,90,4.7,-999.0,26,-99.99,,,0.00,Acu-Link.com,2013-05-02 17:30:00,
2013-05-02 13:46:00,76.3,37.9,30.21,SSE,157,1.7,-999.0,25,-99.99,,,0.00,Acu-Link.com,2013-05-02 17:46:00,
2013-05-02 14:01:00,80.4,43.3,30.20,NW,315,3.7,-999.0,27,-99.99,,,0.00,Acu-Link.com,2013-05-02 18:01:00,
2013-05-02 14:16:00,76.5,40.0,30.20,SE,135,2.7,-999.0,27,-99.99,,,0.00,Acu-Link.com,2013-05-02 18:16:00,
2013-05-02 14:31:00,77.5,38.9,30.20,NE,45,3.2,-999.0,25,-99.99,,,0.00,Acu-Link.com,2013-05-02 18:31:00,
2013-05-02 14:46:00,80.6,41.5,30.19,SSW,202,5.3,-999.0,25,-99.99,,,0.00,Acu-Link.com,2013-05-02 18:46:00,
2013-05-02 15:02:00,73.2,43.9,30.20,NNE,22,14.5,-999.0,35,-99.99,,,0.00,Acu-Link.com,2013-05-02 19:02:00,
2013-05-02 15:17:00,69.8,45.0,30.21,ESE,112,8.9,-999.0,41,-99.99,,,0.00,Acu-Link.com,2013-05-02 19:17:00,
2013-05-02 15:32:00,66.9,43.7,30.23,ENE,67,12.5,-999.0,43,-99.99,,,0.00,Acu-Link.com,2013-05-02 19:32:00,
2013-05-02 15:47:00,64.2,44.6,30.23,ENE,67,14.0,-999.0,49,-99.99,,,0.00,Acu-Link.com,2013-05-02 19:47:00,
2013-05-02 16:03:00,63.7,45.7,30.25,ENE,67,7.8,-999.0,52,-99.99,,,0.00,Acu-Link.com,2013-05-02 20:03:00,
2013-05-02 16:18:00,61.3,45.0,30.25,ENE,67,16.6,-999.0,55,-99.99,,,0.00,Acu-Link.com,2013-05-02 20:18:00,
2013-05-02 16:33:00,57.6,44.3,30.26,ENE,67,8.9,-999.0,61,-99.99,,,0.00,Acu-Link.com,2013-05-02 20:33:00,
2013-05-02 16:48:00,55.6,44.4,30.27,SSE,157,6.3,-999.0,66,-99.99,,,0.00,Acu-Link.com,2013-05-02 20:48:00,
2013-05-02 17:03:00,54.1,44.2,30.27,NNW,337,5.8,-999.0,69,-99.99,,,0.00,Acu-Link.com,2013-05-02 21:03:00,
2013-05-02 17:19:00,53.1,43.2,30.28,ENE,67,8.3,-999.0,69,-99.99,,,0.00,Acu-Link.com,2013-05-02 21:19:00,
2013-05-02 17:34:00,53.1,42.8,30.29,ENE,67,10.4,-999.0,68,-99.99,,,0.00,Acu-Link.com,2013-05-02 21:34:00,
2013-05-02 17:49:00,52.2,41.2,30.29,NE,45,7.3,-999.0,66,-99.99,,,0.00,Acu-Link.com,2013-05-02 21:49:00,
2013-05-02 18:04:00,52.5,39.9,30.30,SSW,202,4.2,-999.0,62,-99.99,,,0.00,Acu-Link.com,2013-05-02 22:04:00,
2013-05-02 18:19:00,51.8,37.9,30.30,ESE,112,4.7,-999.0,59,-99.99,,,0.00,Acu-Link.com,2013-05-02 22:19:00,
2013-05-02 18:35:00,51.6,38.2,30.31,ESE,112,8.9,-999.0,60,-99.99,,,0.00,Acu-Link.com,2013-05-02 22:35:00,
2013-05-02 18:50:00,50.7,37.7,30.31,NE,45,7.3,-999.0,61,-99.99,,,0.00,Acu-Link.com,2013-05-02 22:50:00,
2013-05-02 19:05:00,50.0,35.8,30.31,NNE,22,5.3,-999.0,58,-99.99,,,0.00,Acu-Link.com,2013-05-02 23:05:00,
2013-05-02 19:20:00,49.6,36.3,30.31,ESE,112,5.8,-999.0,60,-99.99,,,0.00,Acu-Link.com,2013-05-02 23:20:00,
2013-05-02 19:36:00,49.5,37.4,30.33,ESE,112,6.8,-999.0,63,-99.99,,,0.00,Acu-Link.com,2013-05-02 23:36:00,
2013-05-02 19:51:00,49.5,37.8,30.33,East,90,3.2,-999.0,64,-99.99,,,0.00,Acu-Link.com,2013-05-02 23:51:00,
2013-05-02 20:06:00,49.3,37.6,30.33,East,90,6.8,-999.0,64,-99.99,,,0.00,Acu-Link.com,2013-05-03 00:06:00,
2013-05-02 20:21:00,49.5,37.0,30.34,ESE,112,3.2,-999.0,62,-99.99,,,0.00,Acu-Link.com,2013-05-03 00:21:00,
2013-05-02 20:36:00,49.6,37.1,30.34,ESE,112,1.7,-999.0,62,-99.99,,,0.00,Acu-Link.com,2013-05-03 00:36:00,
2013-05-02 20:52:00,49.8,37.3,30.34,ESE,112,1.7,-999.0,62,-99.99,,,0.00,Acu-Link.com,2013-05-03 00:52:00,
2013-05-02 21:07:00,49.6,36.3,30.34,ESE,112,0.0,-999.0,60,-99.99,,,0.00,Acu-Link.com,2013-05-03 01:07:00,
2013-05-02 21:22:00,49.6,35.9,30.34,SSE,157,0.0,-999.0,59,-99.99,,,0.00,Acu-Link.com,2013-05-03 01:22:00,
2013-05-02 21:37:00,49.6,37.1,30.35,ESE,112,3.2,-999.0,62,-99.99,,,0.00,Acu-Link.com,2013-05-03 01:37:00,
2013-05-02 21:52:00,49.6,37.1,30.35,NNE,22,2.2,-999.0,62,-99.99,,,0.00,Acu-Link.com,2013-05-03 01:52:00,
2013-05-02 22:08:00,49.6,36.7,30.35,ESE,112,1.7,-999.0,61,-99.99,,,0.00,Acu-Link.com,2013-05-03 02:08:00,
2013-05-02 22:23:00,48.7,36.7,30.35,NNE,22,1.7,-999.0,63,-99.99,,,0.00,Acu-Link.com,2013-05-03 02:23:00,
2013-05-02 22:38:00,47.7,37.3,30.35,NNW,337,0.0,-999.0,67,-99.99,,,0.00,Acu-Link.com,2013-05-03 02:38:00,
2013-05-02 22:53:00,46.6,37.3,30.35,NNE,22,0.0,-999.0,70,-99.99,,,0.00,Acu-Link.com,2013-05-03 02:53:00,
2013-05-02 23:08:00,45.5,37.7,30.35,NE,45,0.0,-999.0,74,-99.99,,,0.00,Acu-Link.com,2013-05-03 03:08:00,
2013-05-02 23:24:00,45.0,37.6,30.35,NE,45,0.0,-999.0,75,-99.99,,,0.00,Acu-Link.com,2013-05-03 03:24:00,
2013-05-02 23:39:00,43.9,37.5,30.35,NE,45,0.0,-999.0,78,-99.99,,,0.00,Acu-Link.com,2013-05-03 03:39:00,
2013-05-02 23:54:00,43.2,37.1,30.35,East,90,0.0,-999.0,79,-99.99,,,0.00,Acu-Link.com,2013-05-03 03:54:00,